Time;durP1;ratioP1;P1;durP2;ratioP2;P2;SDS_P1;SDS_P2;PMS_P1;PMS_P2;Temp;Humidity;BMP_temperature;BMP_pressure;BME280_temperature;BME280_humidity;BME280_pressure;Samples;Min_cycle;Max_cycle;Signal;HPM_P1;HPM_P2
2023/07/02 00:01:08;;;;;;;8.70;3.40;;;16.50;99.90;;;;;;5095484;28;20187;-42
2023/07/02 00:03:34;;;;;;;12.13;3.90;;;16.50;99.90;;;;;;5095041;28;20636;-42
2023/07/02 00:05:59;;;;;;;8.80;4.23;;;16.40;99.90;;;;;;5094983;28;20197;-42
2023/07/02 00:08:25;;;;;;;7.53;3.83;;;16.40;99.90;;;;;;5095115;28;20530;-42
2023/07/02 00:10:50;;;;;;;8.57;3.93;;;16.40;99.90;;;;;;5094799;28;20235;-42
2023/07/02 00:13:16;;;;;;;9.20;4.33;;;16.40;99.90;;;;;;5094716;28;20209;-43
2023/07/02 00:15:42;;;;;;;8.97;4.43;;;16.30;99.90;;;;;;5094947;28;20201;-43
2023/07/02 00:18:07;;;;;;;10.33;4.00;;;16.30;99.90;;;;;;5094917;28;20667;-44
2023/07/02 00:20:37;;;;;;;8.73;4.53;;;16.30;99.90;;;;;;5094835;28;20700;-42
2023/07/02 00:23:04;;;;;;;10.70;4.67;;;16.30;99.90;;;;;;5094279;28;20191;-43
2023/07/02 00:25:29;;;;;;;12.13;5.03;;;16.30;99.90;;;;;;5094895;28;20278;-41
2023/07/02 00:27:55;;;;;;;15.90;4.97;;;16.20;99.90;;;;;;5094861;28;20693;-42
2023/07/02 00:30:20;;;;;;;8.60;4.73;;;16.20;99.90;;;;;;5094979;28;20200;-40
2023/07/02 00:32:46;;;;;;;13.50;5.20;;;16.10;99.90;;;;;;5094429;28;20179;-43
2023/07/02 00:35:11;;;;;;;9.77;5.30;;;16.10;99.90;;;;;;5094314;28;20244;-43
2023/07/02 00:37:37;;;;;;;11.20;4.90;;;16.10;99.90;;;;;;5094515;28;20178;-42
2023/07/02 00:40:03;;;;;;;8.87;5.23;;;16.10;99.90;;;;;;5094432;28;20580;-42
2023/07/02 00:42:29;;;;;;;11.43;5.63;;;16.00;99.90;;;;;;5094048;28;20578;-44
2023/07/02 00:44:57;;;;;;;7.83;4.90;;;16.00;99.90;;;;;;5094110;28;20278;-40
2023/07/02 00:47:23;;;;;;;17.70;6.00;;;16.00;99.90;;;;;;5094641;28;20201;-42
2023/07/02 00:49:50;;;;;;;11.07;5.60;;;15.90;99.90;;;;;;5076000;28;20266;-43
2023/07/02 00:52:16;;;;;;;9.23;5.63;;;15.90;99.90;;;;;;5094488;28;20183;-41
2023/07/02 00:54:41;;;;;;;12.20;5.43;;;15.90;99.90;;;;;;5095256;28;20239;-49
2023/07/02 00:57:07;;;;;;;15.30;6.17;;;15.80;99.90;;;;;;5093581;28;20285;-47
2023/07/02 00:59:35;;;;;;;14.00;6.77;;;15.80;99.90;;;;;;5094167;28;20183;-47
2023/07/02 01:02:01;;;;;;;14.30;6.73;;;15.70;99.90;;;;;;5094066;28;20182;-48
2023/07/02 01:04:27;;;;;;;12.27;6.67;;;15.70;99.90;;;;;;5093931;28;20263;-49
2023/07/02 01:06:57;;;;;;;15.20;7.70;;;15.70;99.90;;;;;;5093976;28;20636;-46
2023/07/02 01:09:26;;;;;;;14.57;6.97;;;15.70;99.90;;;;;;5094118;28;20205;-46
2023/07/02 01:11:59;;;;;;;18.97;7.87;;;15.70;99.90;;;;;;5093978;28;20175;-47
2023/07/02 01:14:38;;;;;;;13.00;7.77;;;15.80;99.90;;;;;;5093852;28;20194;-48
2023/07/02 01:17:06;;;;;;;13.30;7.63;;;15.70;99.90;;;;;;5093865;28;20155;-45
2023/07/02 01:19:58;;;;;;;15.07;8.30;;;15.70;99.90;;;;;;5093557;28;20257;-46
2023/07/02 01:22:25;;;;;;;22.43;8.37;;;15.60;99.90;;;;;;5075386;28;20195;-47
2023/07/02 01:24:52;;;;;;;15.63;7.97;;;15.60;99.90;;;;;;5094091;28;20195;-48
2023/07/02 01:27:18;;;;;;;15.63;7.37;;;15.60;99.90;;;;;;5093442;28;20521;-47
2023/07/02 01:29:47;;;;;;;15.40;7.77;;;15.60;99.90;;;;;;5093753;28;20578;-49
2023/07/02 01:32:15;;;;;;;18.63;8.73;;;15.50;99.90;;;;;;5093928;28;20205;-47
2023/07/02 01:34:43;;;;;;;19.20;9.23;;;15.50;99.90;;;;;;5075187;28;20252;-46
2023/07/02 01:37:09;;;;;;;19.20;9.60;;;15.50;99.90;;;;;;5093380;28;20205;-47
2023/07/02 01:39:35;;;;;;;18.67;9.67;;;15.50;99.90;;;;;;5093364;28;20227;-48
2023/07/02 01:42:15;;;;;;;21.87;9.57;;;15.50;99.90;;;;;;5093289;28;20178;-47
2023/07/02 01:44:42;;;;;;;19.90;9.67;;;15.50;99.90;;;;;;5093550;28;20198;-47
2023/07/02 01:47:07;;;;;;;18.20;9.07;;;15.40;99.90;;;;;;5093538;28;20534;-48
2023/07/02 01:49:33;;;;;;;20.03;9.27;;;15.40;99.90;;;;;;5094138;28;20167;-48
2023/07/02 01:51:59;;;;;;;19.23;8.83;;;15.50;99.90;;;;;;5094250;28;20186;-47
2023/07/02 01:54:28;;;;;;;23.13;10.00;;;15.40;99.90;;;;;;5093288;28;20300;-47
2023/07/02 01:56:55;;;;;;;19.57;9.70;;;15.40;99.90;;;;;;5075628;28;20222;-41
2023/07/02 01:59:21;;;;;;;21.13;9.97;;;15.40;99.90;;;;;;5093441;28;20185;-40
2023/07/02 02:01:46;;;;;;;18.77;10.07;;;15.40;99.90;;;;;;5093244;28;20690;-42
2023/07/02 02:04:12;;;;;;;22.03;10.17;;;15.40;99.90;;;;;;5093011;28;20209;-42
2023/07/02 02:06:39;;;;;;;20.13;9.83;;;15.30;99.90;;;;;;5093356;28;20228;-41
2023/07/02 02:09:05;;;;;;;20.23;10.53;;;15.40;99.90;;;;;;5093040;28;20547;-42
2023/07/02 02:11:38;;;;;;;21.70;10.20;;;15.30;99.90;;;;;;5093634;28;20167;-42
2023/07/02 02:14:03;;;;;;;24.57;11.07;;;15.30;99.90;;;;;;5093252;28;20178;-43
2023/07/02 02:16:29;;;;;;;21.27;10.50;;;15.30;99.90;;;;;;5093267;28;20233;-41
2023/07/02 02:18:55;;;;;;;20.60;10.47;;;15.30;99.90;;;;;;5091743;28;20278;-42
2023/07/02 02:21:21;;;;;;;20.20;10.43;;;15.30;99.90;;;;;;5093278;28;20178;-42
2023/07/02 02:23:47;;;;;;;21.50;10.40;;;15.30;99.90;;;;;;5092846;28;20257;-41
2023/07/02 02:26:13;;;;;;;22.93;11.77;;;15.30;99.90;;;;;;5092806;28;20219;-41
2023/07/02 02:28:39;;;;;;;21.73;10.97;;;15.30;99.90;;;;;;5092886;28;20175;-41
2023/07/02 02:31:05;;;;;;;22.97;11.93;;;15.30;99.90;;;;;;5092815;28;20217;-42
2023/07/02 02:33:31;;;;;;;20.03;10.00;;;15.30;99.90;;;;;;5092818;28;20175;-43
2023/07/02 02:35:57;;;;;;;22.70;11.57;;;15.30;99.90;;;;;;5092760;28;20202;-41
2023/07/02 02:38:22;;;;;;;25.97;11.50;;;15.30;99.90;;;;;;5093080;28;20179;-40
2023/07/02 02:40:48;;;;;;;22.47;11.97;;;15.30;99.90;;;;;;5092825;28;20179;-41
2023/07/02 02:43:16;;;;;;;21.90;10.97;;;15.30;99.90;;;;;;5092967;28;20647;-42
2023/07/02 02:45:42;;;;;;;25.03;11.63;;;15.20;99.90;;;;;;5093745;28;20187;-42
2023/07/02 02:48:08;;;;;;;20.87;11.47;;;15.30;99.90;;;;;;5096395;28;20250;-42
2023/07/02 02:50:33;;;;;;;24.27;11.10;;;15.30;99.90;;;;;;5096396;28;20175;-43
2023/07/02 02:52:59;;;;;;;25.03;12.30;;;15.30;99.90;;;;;;5096571;28;20228;-43
2023/07/02 02:55:24;;;;;;;19.13;10.90;;;15.30;99.90;;;;;;5096430;28;20207;-43
2023/07/02 02:57:50;;;;;;;22.17;12.33;;;15.40;99.90;;;;;;5096526;28;20194;-40
2023/07/02 03:00:16;;;;;;;21.63;12.13;;;15.40;99.90;;;;;;5096884;28;20178;-43
2023/07/02 03:02:42;;;;;;;19.87;11.30;;;15.40;99.90;;;;;;5096832;28;20231;-41
2023/07/02 03:05:08;;;;;;;21.57;11.27;;;15.40;99.90;;;;;;5096754;28;20616;-41
2023/07/02 03:07:35;;;;;;;25.63;12.57;;;15.50;99.90;;;;;;5096384;28;20171;-42
2023/07/02 03:10:01;;;;;;;27.10;13.03;;;15.50;99.90;;;;;;5096325;28;20170;-41
2023/07/02 03:12:26;;;;;;;26.80;13.57;;;15.50;99.90;;;;;;5097057;28;20178;-41
2023/07/02 03:14:54;;;;;;;26.63;13.30;;;15.50;99.90;;;;;;5095987;28;20199;-43
2023/07/02 03:17:20;;;;;;;25.33;13.03;;;15.50;99.90;;;;;;5095821;28;20719;-42
2023/07/02 03:19:46;;;;;;;26.03;13.10;;;15.50;99.90;;;;;;5096363;28;20225;-41
2023/07/02 03:22:12;;;;;;;24.63;12.90;;;15.60;99.90;;;;;;5095938;28;20175;-39
2023/07/02 03:24:38;;;;;;;29.57;13.67;;;15.50;99.90;;;;;;5095599;28;20191;-42
2023/07/02 03:27:03;;;;;;;30.93;13.73;;;15.60;99.90;;;;;;5095884;28;20179;-40
2023/07/02 03:29:29;;;;;;;26.50;12.80;;;15.60;99.90;;;;;;5095524;28;20171;-41
2023/07/02 03:31:55;;;;;;;27.30;13.13;;;15.60;99.90;;;;;;5095549;28;20228;-42
2023/07/02 03:34:22;;;;;;;29.60;14.13;;;15.60;99.90;;;;;;5095388;28;20609;-42
2023/07/02 03:36:48;;;;;;;27.97;13.90;;;15.60;99.90;;;;;;5095683;28;20588;-42
2023/07/02 03:39:13;;;;;;;25.30;13.20;;;15.60;99.90;;;;;;5095327;28;20228;-42
2023/07/02 03:41:39;;;;;;;28.27;14.97;;;15.60;99.90;;;;;;5095544;28;20171;-40
2023/07/02 03:44:05;;;;;;;32.80;14.73;;;15.60;99.90;;;;;;5077626;28;20592;-41
2023/07/02 03:46:34;;;;;;;33.17;14.33;;;15.60;99.90;;;;;;5095170;28;20644;-40
2023/07/02 03:48:59;;;;;;;29.00;13.50;;;15.60;99.90;;;;;;5095125;28;20194;-40
2023/07/02 03:51:25;;;;;;;28.67;14.63;;;15.50;99.90;;;;;;5095066;28;20167;-40
2023/07/02 03:53:53;;;;;;;24.00;14.27;;;15.60;99.90;;;;;;5095387;28;20242;-40
2023/07/02 03:56:19;;;;;;;34.10;14.37;;;15.70;99.90;;;;;;5094822;28;20658;-43
2023/07/02 03:58:45;;;;;;;27.67;14.20;;;15.50;99.90;;;;;;5094185;28;20183;-39
2023/07/02 04:01:11;;;;;;;26.63;15.73;;;15.50;99.90;;;;;;5094997;28;20182;-41
2023/07/02 04:03:36;;;;;;;31.80;15.20;;;15.60;99.90;;;;;;5094811;28;20207;-41
2023/07/02 04:06:02;;;;;;;33.13;15.13;;;15.60;99.90;;;;;;5095008;28;20191;-41
2023/07/02 04:08:31;;;;;;;25.93;14.50;;;15.60;99.90;;;;;;5095034;28;20254;-41
2023/07/02 04:10:56;;;;;;;31.47;14.50;;;15.60;99.90;;;;;;5094794;28;20171;-42
2023/07/02 04:13:22;;;;;;;30.87;14.50;;;15.60;99.90;;;;;;5095018;28;20671;-40
2023/07/02 04:15:47;;;;;;;33.37;16.33;;;15.60;99.90;;;;;;5094659;28;20199;-41
2023/07/02 04:18:13;;;;;;;34.13;15.43;;;15.50;99.90;;;;;;5094552;28;20179;-42
2023/07/02 04:20:38;;;;;;;29.27;14.67;;;15.60;99.90;;;;;;5095112;28;20171;-42
2023/07/02 04:23:07;;;;;;;27.63;15.20;;;15.60;99.90;;;;;;5094416;28;20198;-43
2023/07/02 04:25:33;;;;;;;28.43;14.17;;;15.60;99.90;;;;;;5094436;28;20191;-40
2023/07/02 04:27:59;;;;;;;28.37;15.73;;;15.60;99.90;;;;;;5094658;28;20702;-41
2023/07/02 04:30:25;;;;;;;31.17;15.63;;;15.60;99.90;;;;;;5094363;28;20171;-41
2023/07/02 04:32:51;;;;;;;30.57;16.03;;;15.60;99.90;;;;;;5094421;28;20211;-42
2023/07/02 04:35:17;;;;;;;36.83;15.83;;;15.60;99.90;;;;;;5094214;28;20195;-41
2023/07/02 04:37:43;;;;;;;29.03;15.27;;;15.70;99.90;;;;;;5094809;28;20240;-42
2023/07/02 04:40:09;;;;;;;30.47;15.93;;;15.60;99.90;;;;;;5094216;28;20167;-40
2023/07/02 04:42:39;;;;;;;33.10;14.97;;;15.70;99.90;;;;;;5094116;28;20206;-39
2023/07/02 04:45:06;;;;;;;30.97;16.10;;;15.70;99.90;;;;;;5094244;28;20727;-40
2023/07/02 04:47:32;;;;;;;30.50;15.50;;;15.70;99.90;;;;;;5094062;28;20171;-40
2023/07/02 04:49:58;;;;;;;36.33;16.10;;;15.70;99.90;;;;;;5094101;28;20182;-41
2023/07/02 04:52:24;;;;;;;35.23;15.83;;;15.70;99.90;;;;;;5094444;28;20183;-42
2023/07/02 04:54:49;;;;;;;33.13;16.27;;;15.70;99.90;;;;;;5093998;28;20694;-42
2023/07/02 04:57:15;;;;;;;32.10;15.37;;;15.80;99.90;;;;;;5094140;28;20299;-43
2023/07/02 04:59:43;;;;;;;34.80;16.17;;;15.70;99.90;;;;;;5094124;28;20201;-41
2023/07/02 05:02:09;;;;;;;30.27;15.77;;;15.90;99.90;;;;;;5093970;28;20179;-43
2023/07/02 05:04:37;;;;;;;33.43;15.20;;;15.80;99.90;;;;;;5093954;28;20252;-44
2023/07/02 05:07:04;;;;;;;33.87;16.07;;;15.80;99.90;;;;;;5094058;28;20197;-42
2023/07/02 05:09:30;;;;;;;35.93;16.73;;;15.90;99.90;;;;;;5093785;28;20174;-43
2023/07/02 05:11:55;;;;;;;37.13;16.50;;;15.90;99.90;;;;;;5094318;28;20662;-43
2023/07/02 05:14:22;;;;;;;36.30;16.33;;;15.90;99.90;;;;;;5094075;28;20324;-43
2023/07/02 05:16:48;;;;;;;31.53;15.87;;;15.90;99.90;;;;;;5094534;28;20206;-41
2023/07/02 05:19:14;;;;;;;32.80;16.20;;;16.00;99.90;;;;;;5093588;28;20646;-42
2023/07/02 05:21:39;;;;;;;34.93;16.80;;;16.00;99.90;;;;;;5093638;28;20274;-42
2023/07/02 05:24:05;;;;;;;32.83;16.43;;;16.10;99.90;;;;;;5093539;28;20203;-43
2023/07/02 05:26:31;;;;;;;35.57;17.03;;;16.10;99.90;;;;;;5075542;28;20171;-42
2023/07/02 05:28:56;;;;;;;40.37;16.10;;;16.20;99.90;;;;;;5093477;28;20175;-42
2023/07/02 05:31:22;;;;;;;35.23;16.77;;;16.20;99.90;;;;;;5093730;28;20254;-43
2023/07/02 05:33:47;;;;;;;35.83;16.40;;;16.30;99.90;;;;;;5093421;28;20668;-42
2023/07/02 05:36:13;;;;;;;32.00;16.47;;;16.30;99.90;;;;;;5094156;28;20676;-43
2023/07/02 05:38:38;;;;;;;31.60;16.67;;;16.30;99.90;;;;;;5093641;28;20659;-43
2023/07/02 05:41:04;;;;;;;33.50;16.60;;;16.40;99.90;;;;;;5093741;28;20639;-43
2023/07/02 05:43:30;;;;;;;40.50;17.67;;;16.40;99.90;;;;;;5093655;28;20206;-41
2023/07/02 05:46:00;;;;;;;35.60;17.87;;;16.40;99.90;;;;;;5094023;28;20199;-42
2023/07/02 05:48:26;;;;;;;38.53;17.63;;;16.40;99.90;;;;;;5093713;28;20177;-42
2023/07/02 05:50:52;;;;;;;34.23;17.30;;;16.50;99.90;;;;;;5093631;28;20255;-42
2023/07/02 05:53:17;;;;;;;39.57;16.97;;;16.60;99.90;;;;;;5093541;28;20267;-43
2023/07/02 05:55:43;;;;;;;34.13;16.80;;;16.60;99.90;;;;;;5093951;28;20222;-42
2023/07/02 05:58:08;;;;;;;39.63;18.67;;;16.70;99.90;;;;;;5093099;28;20194;-40
2023/07/02 06:00:34;;;;;;;34.37;17.27;;;16.70;99.90;;;;;;5093160;28;20569;-44
2023/07/02 06:03:00;;;;;;;37.33;17.57;;;16.80;99.90;;;;;;5093093;28;20203;-40
2023/07/02 06:05:25;;;;;;;38.10;18.90;;;16.90;99.90;;;;;;5093548;28;20282;-44
2023/07/02 06:07:51;;;;;;;36.00;17.97;;;17.00;99.90;;;;;;5093118;28;20175;-42
2023/07/02 06:10:17;;;;;;;36.80;17.47;;;17.00;99.90;;;;;;5093279;28;20167;-41
2023/07/02 06:12:43;;;;;;;33.30;15.50;;;17.10;99.90;;;;;;5093116;28;20546;-44
2023/07/02 06:15:09;;;;;;;34.07;17.73;;;17.20;99.90;;;;;;5093197;28;20203;-42
2023/07/02 06:17:34;;;;;;;35.03;18.03;;;17.20;99.90;;;;;;5093243;28;20191;-42
2023/07/02 06:20:04;;;;;;;42.10;18.30;;;17.30;99.90;;;;;;5093063;28;20529;-43
2023/07/02 06:22:30;;;;;;;34.90;15.63;;;17.30;99.90;;;;;;5097133;28;20217;-42
2023/07/02 06:24:55;;;;;;;35.53;16.43;;;17.40;99.90;;;;;;5096743;28;20203;-42
2023/07/02 06:27:21;;;;;;;31.27;15.77;;;17.50;99.90;;;;;;5097050;28;20303;-41
2023/07/02 06:29:47;;;;;;;34.93;17.47;;;17.60;99.90;;;;;;5096774;28;20674;-41
2023/07/02 06:32:13;;;;;;;35.20;17.00;;;17.70;99.90;;;;;;5096673;28;20190;-43
2023/07/02 06:34:38;;;;;;;34.77;17.40;;;17.90;99.90;;;;;;5097020;28;20720;-42
2023/07/02 06:37:05;;;;;;;32.80;16.63;;;18.00;99.90;;;;;;5096554;28;20175;-41
2023/07/02 06:39:30;;;;;;;41.40;16.93;;;18.10;99.90;;;;;;5096786;28;20701;-43
2023/07/02 06:41:56;;;;;;;27.03;15.47;;;18.10;99.90;;;;;;5096789;28;20627;-41
2023/07/02 06:44:22;;;;;;;37.80;16.43;;;18.10;99.90;;;;;;5096675;28;20241;-43
2023/07/02 06:46:47;;;;;;;30.40;16.73;;;18.20;99.90;;;;;;5096464;28;20178;-41
2023/07/02 06:49:13;;;;;;;30.00;15.70;;;18.20;99.90;;;;;;5096515;28;20179;-43
2023/07/02 06:51:38;;;;;;;29.30;15.93;;;18.20;99.90;;;;;;5096340;28;20175;-44
2023/07/02 06:54:04;;;;;;;30.67;15.63;;;18.30;99.90;;;;;;5096673;28;20264;-42
2023/07/02 06:56:32;;;;;;;39.63;17.27;;;18.40;99.90;;;;;;5096393;28;20197;-44
2023/07/02 06:58:58;;;;;;;38.57;17.33;;;18.40;99.90;;;;;;5096214;28;20179;-43
2023/07/02 07:01:23;;;;;;;34.60;16.43;;;18.50;99.90;;;;;;5077997;28;20173;-41
2023/07/02 07:03:49;;;;;;;33.67;16.77;;;18.60;99.90;;;;;;5095982;28;20209;-39
2023/07/02 07:06:15;;;;;;;32.33;17.47;;;18.70;99.90;;;;;;5096211;28;20210;-41
2023/07/02 07:08:40;;;;;;;36.27;17.50;;;18.80;99.90;;;;;;5096248;28;20193;-43
2023/07/02 07:11:06;;;;;;;27.83;16.30;;;18.90;99.90;;;;;;5095946;28;20159;-43
2023/07/02 07:13:32;;;;;;;33.30;16.33;;;19.00;99.90;;;;;;5096201;28;20232;-42
2023/07/02 07:15:58;;;;;;;33.23;16.47;;;19.10;99.90;;;;;;5096037;28;20203;-44
2023/07/02 07:18:23;;;;;;;30.30;16.20;;;19.20;99.90;;;;;;5096033;28;20175;-42
2023/07/02 07:20:49;;;;;;;31.70;14.73;;;19.40;99.90;;;;;;5096031;28;20185;-42
2023/07/02 07:23:16;;;;;;;34.73;15.33;;;19.40;99.90;;;;;;5095632;28;20670;-43
2023/07/02 07:25:42;;;;;;;33.53;15.50;;;19.40;99.90;;;;;;5077745;28;20191;-41
2023/07/02 07:28:11;;;;;;;27.70;14.70;;;19.50;99.90;;;;;;5095593;28;20264;-41
2023/07/02 07:30:37;;;;;;;28.20;14.60;;;19.60;99.90;;;;;;5095830;28;20190;-41
2023/07/02 07:33:02;;;;;;;26.03;14.03;;;19.60;99.90;;;;;;5095827;28;20179;-43
2023/07/02 07:35:28;;;;;;;31.90;15.07;;;19.60;99.90;;;;;;5095613;28;20226;-43
2023/07/02 07:37:54;;;;;;;28.67;14.73;;;19.70;99.90;;;;;;5095376;28;20187;-43
2023/07/02 07:40:19;;;;;;;34.43;14.93;;;19.80;99.90;;;;;;5095316;28;20228;-41
2023/07/02 07:42:45;;;;;;;28.10;14.27;;;19.80;99.90;;;;;;5095788;28;20542;-41
2023/07/02 07:45:11;;;;;;;29.67;13.63;;;19.80;99.90;;;;;;5095174;28;20202;-44
2023/07/02 07:47:37;;;;;;;33.57;14.80;;;19.90;99.90;;;;;;5095189;28;20201;-43
2023/07/02 07:50:08;;;;;;;26.87;14.57;;;19.90;99.90;;;;;;5095171;28;20175;-44
2023/07/02 07:52:34;;;;;;;25.40;13.80;;;19.90;99.90;;;;;;5095397;28;20171;-44
2023/07/02 07:55:00;;;;;;;31.30;13.90;;;20.00;99.90;;;;;;5095279;28;20202;-45
2023/07/02 07:57:25;;;;;;;30.03;13.97;;;20.00;99.90;;;;;;5095019;28;20198;-42
2023/07/02 07:59:51;;;;;;;27.80;14.00;;;20.10;99.90;;;;;;5095187;28;20187;-44
2023/07/02 08:02:16;;;;;;;27.20;13.70;;;20.10;99.90;;;;;;5094834;28;20171;-45
2023/07/02 08:04:42;;;;;;;31.50;14.30;;;20.10;99.90;;;;;;5094828;28;20197;-42
2023/07/02 08:07:09;;;;;;;28.10;13.77;;;20.10;99.90;;;;;;5095343;28;20200;-44
2023/07/02 08:09:34;;;;;;;32.77;15.20;;;20.20;99.90;;;;;;5094770;28;20715;-42
2023/07/02 08:12:00;;;;;;;31.90;15.23;;;20.20;99.90;;;;;;5094818;28;20174;-44
2023/07/02 08:14:26;;;;;;;25.63;14.70;;;20.40;99.90;;;;;;5094930;28;20198;-44
2023/07/02 08:16:51;;;;;;;28.30;13.53;;;20.40;99.90;;;;;;5094906;28;20194;-45
2023/07/02 08:19:17;;;;;;;27.83;13.67;;;20.30;99.90;;;;;;5094959;28;20168;-44
2023/07/02 08:21:42;;;;;;;31.43;14.90;;;20.40;99.90;;;;;;5094883;28;20175;-43
2023/07/02 08:24:08;;;;;;;31.33;14.57;;;20.50;99.90;;;;;;5094812;28;20206;-45
2023/07/02 08:26:34;;;;;;;28.93;14.30;;;20.60;99.90;;;;;;5094831;28;20272;-44
2023/07/02 08:28:59;;;;;;;27.93;14.83;;;20.80;99.90;;;;;;5095677;28;20178;-43
2023/07/02 08:31:25;;;;;;;30.87;15.17;;;20.80;99.90;;;;;;5094745;28;20205;-44
2023/07/02 08:33:50;;;;;;;29.67;14.43;;;20.80;99.90;;;;;;5095617;28;20228;-45
2023/07/02 08:36:16;;;;;;;27.80;13.77;;;20.90;99.90;;;;;;5095276;28;20195;-42
2023/07/02 08:38:43;;;;;;;26.20;14.10;;;20.90;99.90;;;;;;5094381;28;20647;-43
2023/07/02 08:41:08;;;;;;;31.53;14.20;;;20.90;99.90;;;;;;5094527;28;20179;-42
2023/07/02 08:43:36;;;;;;;29.73;14.17;;;20.90;99.90;;;;;;5093861;28;20217;-44
2023/07/02 08:46:02;;;;;;;28.53;14.73;;;21.00;99.90;;;;;;5094196;28;20217;-42
2023/07/02 08:48:29;;;;;;;26.67;14.30;;;21.10;99.90;;;;;;5094131;28;20232;-43
2023/07/02 08:50:55;;;;;;;29.77;14.03;;;21.20;99.90;;;;;;5094353;28;20703;-44
2023/07/02 08:53:29;;;;;;;24.57;12.97;;;21.30;99.90;;;;;;5094047;28;20182;-43
2023/07/02 08:55:55;;;;;;;27.87;13.70;;;21.40;99.90;;;;;;5094209;28;20207;-43
2023/07/02 08:58:21;;;;;;;27.47;13.13;;;21.50;99.90;;;;;;5093799;28;20698;-44
2023/07/02 09:01:09;;;;;;;24.20;14.13;;;21.50;99.90;;;;;;5094160;28;20171;-42
2023/07/02 09:03:37;;;;;;;29.47;14.03;;;21.50;99.90;;;;;;5093907;28;20206;-43
2023/07/02 09:06:04;;;;;;;26.30;14.40;;;21.50;99.90;;;;;;5093707;28;20202;-45
2023/07/02 09:08:29;;;;;;;25.90;13.60;;;21.30;99.90;;;;;;5093767;28;20182;-44
2023/07/02 09:11:16;;;;;;;25.17;13.77;;;21.20;99.90;;;;;;5093998;28;20179;-42
2023/07/02 09:13:48;;;;;;;24.03;13.80;;;21.10;99.90;;;;;;5092420;28;20673;-42
2023/07/02 09:16:31;;;;;;;27.33;15.60;;;21.10;99.90;;;;;;5093822;28;20562;-44
2023/07/02 09:19:02;;;;;;;26.20;14.20;;;21.00;99.90;;;;;;5093875;28;20209;-42
2023/07/02 09:21:45;;;;;;;28.60;14.47;;;21.00;99.90;;;;;;5093855;28;20163;-42
2023/07/02 09:24:21;;;;;;;27.77;15.20;;;21.10;99.90;;;;;;5093670;28;20620;-43
2023/07/02 09:26:53;;;;;;;27.97;15.80;;;21.10;99.90;;;;;;5093922;28;20166;-43
2023/07/02 09:29:30;;;;;;;29.37;14.73;;;21.10;99.90;;;;;;5093826;28;20174;-43
2023/07/02 09:32:01;;;;;;;30.10;16.63;;;21.20;99.90;;;;;;5093775;28;20170;-45
2023/07/02 09:34:28;;;;;;;27.20;15.70;;;21.20;99.90;;;;;;5093469;28;20255;-43
2023/07/02 09:36:54;;;;;;;29.47;15.47;;;21.20;99.90;;;;;;5093725;28;20617;-43
2023/07/02 09:39:26;;;;;;;24.80;15.00;;;21.20;99.90;;;;;;5093367;28;20193;-44
2023/07/02 09:41:52;;;;;;;26.30;14.47;;;21.10;99.90;;;;;;5093366;28;20163;-44
2023/07/02 09:44:18;;;;;;;30.27;15.60;;;21.10;99.90;;;;;;5093157;28;20260;-43
2023/07/02 09:46:58;;;;;;;26.10;14.53;;;21.10;99.90;;;;;;5093578;28;20195;-44
2023/07/02 09:49:27;;;;;;;28.07;14.67;;;21.10;99.90;;;;;;5093583;28;20163;-42
2023/07/02 09:51:53;;;;;;;25.83;15.80;;;21.10;99.90;;;;;;5093264;28;20589;-43
2023/07/02 09:54:20;;;;;;;29.17;14.43;;;21.20;99.90;;;;;;5093945;28;20203;-42
2023/07/02 09:56:47;;;;;;;29.83;14.90;;;21.50;99.90;;;;;;5097420;28;20269;-44
2023/07/02 09:59:14;;;;;;;20.47;12.67;;;21.60;99.90;;;;;;5098640;28;20178;-44
2023/07/02 10:01:40;;;;;;;19.50;11.93;;;21.80;99.90;;;;;;5097487;28;20325;-45
2023/07/02 10:04:18;;;;;;;23.50;12.17;;;22.00;99.90;;;;;;5097972;28;20273;-44
2023/07/02 10:06:52;;;;;;;25.57;12.37;;;22.20;99.90;;;;;;5098069;28;20185;-44
2023/07/02 10:09:33;;;;;;;24.97;12.60;;;22.20;99.90;;;;;;5099537;28;20183;-43
2023/07/02 10:11:59;;;;;;;24.33;13.23;;;22.20;99.90;;;;;;5097576;28;20170;-42
2023/07/02 10:14:24;;;;;;;23.50;12.17;;;22.30;99.90;;;;;;5097401;28;20274;-43
2023/07/02 10:16:55;;;;;;;22.57;11.77;;;22.50;99.90;;;;;;5097555;28;20227;-43
2023/07/02 10:19:21;;;;;;;25.53;11.53;;;22.60;99.90;;;;;;5096984;28;20170;-50
2023/07/02 10:22:00;;;;;;;22.07;11.63;;;22.80;99.90;;;;;;5097135;28;20182;-50
2023/07/02 10:24:25;;;;;;;22.20;11.63;;;22.90;99.90;;;;;;5096953;28;20234;-50
2023/07/02 10:26:56;;;;;;;20.10;10.60;;;23.00;99.90;;;;;;5097406;28;20579;-50
2023/07/02 10:29:27;;;;;;;22.97;10.90;;;23.10;99.90;;;;;;5097099;28;20652;-51
2023/07/02 10:31:54;;;;;;;20.73;11.50;;;23.20;99.90;;;;;;5096952;28;20180;-50
2023/07/02 10:34:33;;;;;;;22.67;10.77;;;23.10;99.90;;;;;;5096581;28;20247;-50
2023/07/02 10:37:03;;;;;;;17.83;10.33;;;23.00;99.90;;;;;;5096672;28;20193;-50
2023/07/02 10:39:30;;;;;;;21.40;10.10;;;22.80;99.90;;;;;;5096921;28;20175;-50
2023/07/02 10:42:07;;;;;;;22.13;10.47;;;22.60;99.90;;;;;;5096510;28;20273;-51
2023/07/02 10:44:33;;;;;;;21.10;11.07;;;22.40;99.90;;;;;;5096682;28;20210;-50
2023/07/02 10:46:59;;;;;;;18.60;9.80;;;22.10;99.90;;;;;;5097228;28;20231;-50
2023/07/02 10:49:31;;;;;;;22.70;10.00;;;21.90;99.90;;;;;;5096432;28;20181;-50
2023/07/02 10:52:00;;;;;;;21.73;10.20;;;21.60;99.90;;;;;;5096959;28;20167;-49
2023/07/02 10:54:38;;;;;;;15.80;9.73;;;21.60;99.90;;;;;;5096252;28;20198;-50
2023/07/02 10:57:03;;;;;;;17.83;9.50;;;21.50;99.90;;;;;;5096451;28;20186;-50
2023/07/02 10:59:29;;;;;;;24.17;10.77;;;21.50;99.90;;;;;;5096518;28;20178;-50
2023/07/02 11:01:58;;;;;;;15.77;9.67;;;21.50;99.90;;;;;;5096474;28;20182;-50
2023/07/02 11:04:24;;;;;;;23.60;10.10;;;21.50;99.90;;;;;;5096286;28;20210;-50
2023/07/02 11:06:49;;;;;;;18.17;9.07;;;21.70;99.90;;;;;;5095721;28;20178;-50
2023/07/02 11:09:21;;;;;;;17.63;8.73;;;22.00;99.90;;;;;;5096034;28;20639;-51
2023/07/02 11:12:02;;;;;;;15.87;8.10;;;22.20;99.90;;;;;;5096625;28;20592;-49
2023/07/02 11:14:29;;;;;;;18.63;8.63;;;22.40;99.90;;;;;;5096196;28;20199;-49
2023/07/02 11:16:55;;;;;;;17.13;8.47;;;22.70;99.90;;;;;;5095856;28;20213;-50
2023/07/02 11:19:21;;;;;;;23.73;6.93;;;22.80;99.90;;;;;;5095871;28;20198;-50
2023/07/02 11:21:56;;;;;;;15.53;7.03;;;23.00;99.90;;;;;;5096054;28;20692;-52
2023/07/02 11:24:33;;;;;;;13.00;7.57;;;23.00;99.90;;;;;;5095863;28;20217;-51
2023/07/02 11:27:00;;;;;;;19.53;6.87;;;22.80;99.90;;;;;;5096666;28;20497;-50
2023/07/02 11:29:26;;;;;;;17.13;7.27;;;22.60;99.90;;;;;;5095630;28;20698;-51
2023/07/02 11:31:52;;;;;;;14.77;6.60;;;22.60;99.90;;;;;;5095637;28;20167;-50
2023/07/02 11:34:20;;;;;;;16.13;7.07;;;22.60;99.90;;;;;;5095758;28;20206;-45
2023/07/02 11:36:46;;;;;;;11.77;6.67;;;22.80;99.90;;;;;;5095837;28;20171;-45
2023/07/02 11:39:12;;;;;;;15.30;6.83;;;22.80;99.90;;;;;;5095403;28;20524;-46
2023/07/02 11:41:43;;;;;;;11.27;6.13;;;22.80;99.90;;;;;;5095747;28;20190;-45
2023/07/02 11:44:09;;;;;;;17.63;7.07;;;22.80;99.90;;;;;;5095254;28;20210;-44
2023/07/02 11:46:35;;;;;;;15.80;7.13;;;22.70;99.90;;;;;;5095350;28;20266;-46
2023/07/02 11:49:01;;;;;;;15.50;7.30;;;22.70;99.90;;;;;;5095279;28;20262;-44
2023/07/02 11:51:28;;;;;;;16.90;7.27;;;22.70;99.90;;;;;;5095515;28;20252;-46
2023/07/02 11:53:53;;;;;;;15.10;7.00;;;22.70;99.90;;;;;;5095157;28;20179;-46
2023/07/02 11:56:19;;;;;;;13.20;6.70;;;22.70;99.90;;;;;;5095002;28;20258;-45
2023/07/02 11:58:44;;;;;;;14.70;7.33;;;22.80;99.90;;;;;;5095113;28;20345;-45
2023/07/02 12:01:10;;;;;;;13.63;7.63;;;22.80;99.90;;;;;;5095044;28;20742;-46
2023/07/02 12:03:36;;;;;;;14.37;6.53;;;22.80;99.90;;;;;;5094887;28;20206;-44
2023/07/02 12:06:01;;;;;;;18.67;8.17;;;22.90;99.90;;;;;;5094883;28;20218;-43
2023/07/02 12:08:27;;;;;;;12.43;7.03;;;23.10;99.90;;;;;;5094877;28;20174;-45
2023/07/02 12:10:53;;;;;;;13.53;6.90;;;23.30;99.90;;;;;;5094925;28;20221;-44
2023/07/02 12:13:20;;;;;;;17.50;8.00;;;23.50;99.90;;;;;;5095616;28;20179;-45
2023/07/02 12:15:47;;;;;;;16.30;7.67;;;23.60;99.90;;;;;;5094727;28;20195;-45
2023/07/02 12:18:12;;;;;;;17.00;8.70;;;23.60;99.90;;;;;;5093717;28;20202;-44
2023/07/02 12:20:39;;;;;;;18.00;9.03;;;23.80;99.90;;;;;;5095750;28;20174;-45
2023/07/02 12:23:11;;;;;;;16.47;8.13;;;24.00;99.90;;;;;;5076266;28;20687;-44
2023/07/02 12:25:37;;;;;;;15.47;8.67;;;24.10;99.90;;;;;;5076382;28;20666;-45
2023/07/02 12:28:06;;;;;;;16.27;8.03;;;24.20;99.90;;;;;;5094669;28;20545;-45
2023/07/02 12:30:32;;;;;;;14.20;8.23;;;24.30;99.90;;;;;;5094631;28;20200;-45